Share

Abisko, Sweden

Bjørnfjell 520moh (INORDLAN37) Elev 1903 ft | 68.44 °N, 18.07 °E | Change Station

Current weather conditions updated 4 minutes ago

Light Rain Showers
Light Showers Rain
32.5 °F
Feels Like 27 °F
N
6.0
Wind Variable Wind from West
Gusts 8.0 mph
Sunrise 4:43 AM
Sunset 8:47 PM
Moon Waning Gibbous

Today is forecast to be Cooler than yesterday. Rain and snow.

Pressure 29.42 in
Visibility 6.2 miles
Clouds Few 2500 ft
Mostly Cloudy 3500 ft
Windchill 27 °F
Dew Point 32 °F
Humidity 96%
Rainfall 0.00 in
Snow Depth Not available.
UV 0 out of 16
Pollen Not available.
Air Quality Not available.
Flu Activity Not available.
METAR ENDU 170050Z 22005KT 150V270 9999 -SHRA FEW025 BKN035 03/00 Q0996 RMK WIND AT 2200FT 22031G41KT

More Conditions Fewer Conditions

Pressure 29.42 in
Visibility 6.2 miles
Clouds Few 2500 ft
Mostly Cloudy 3500 ft
Windchill 27 °F
Dew Point 32 °F
Humidity 96%
Rainfall 0.00 in
Snow Depth Not available.
UV 0 out of 16
Pollen Not available.
Air Quality Not available.
Flu Activity Not available.
METAR ENDU 170050Z 22005KT 150V270 9999 -SHRA FEW025 BKN035 03/00 Q0996 RMK WIND AT 2200FT 22031G41KT

More Conditions Fewer Conditions

10-Day Forecast

Almanac

Astronomy

Apr. 17, 2014 Rise Set
Actual Time 4:43 AM CEST 8:47 PM CEST
Civil Twilight 3:29 AM CEST 10:03 PM CEST
Nautical Twilight 1:16 AM CEST 12:11 AM CEST
Astronomical Twilight Sun does not rise Sun does not rise
Moon No Moon Rise 5:09 AM CEST
Length of Visible Light 18h 33m
Length of Day
16h 04m
Tomorrow will be 8m 33s longer.
Waning Gibbous, 97% of the Moon is Illuminated
Apr 16
Waning Gibbous
Apr 22
Last Quarter
Apr 29
New
May 6
First Quarter
May 14
Full

Yesterday's Extremes

Country Highs Country Lows

Community

  • symphony in blue....
    symphony in blue....
  • Dawn Surprise
    Dawn Surprise
  • Yucca delight
    Yucca delight
  • Sunset inside of the Ocean
    Sunset inside of the Ocean
  • Lunar eclipse 15 April 2014
    Lunar eclipse 15 April 2014

WunderPhotos

Upload Photos

1,701,778 photos uploaded!

WunderBlogs® & News

Nearby

Snow Depth

Not available.

Coastal Water Temperatures

Place Temperature
No Stations Reporting

Earthquake Activity

City Distance Mag. Time & Date
No recent earthquake activity has been reported nearby.
Minimum magnitude displayed is 2.5.

Nearby Weather Stations

Station Location Temp. Windchill Dew Point Humidity Wind Precip. Elev Updated Type
Bjørnfjell 520moh, Riksgrensen 32.5 °F 27 °F 32 °F 96% West  at  6.0 mph 0.00 in / hr 1903 ft 3:14 AM CEST Normal
Bardu, Bardu 32.9 °F 26 °F 28 °F 83% SW  at  8.0 mph 0.00 in / hr 1608 ft 3:14 AM CEST Normal

Show More Stations Show Fewer Stations

What do you think?

We're not finished. Please let us know what you like, what you don't like, and what you are still missing.